createdAt,value
2018-05-18T00:00:11.725Z,53.30
2018-05-18T00:02:39.249Z,54.03
2018-05-18T00:05:06.787Z,55.17
2018-05-18T00:07:34.689Z,53.17
2018-05-18T00:10:02.232Z,55.30
2018-05-18T00:12:29.739Z,57.73
2018-05-18T00:14:57.285Z,54.23
2018-05-18T00:17:24.860Z,57.40
2018-05-18T00:19:52.473Z,51.83
2018-05-18T00:22:19.972Z,62.93
2018-05-18T00:24:47.502Z,52.20
2018-05-18T00:27:15.026Z,63.30
2018-05-18T00:29:42.565Z,58.70
2018-05-18T00:32:10.355Z,52.10
2018-05-18T00:34:37.880Z,58.00
2018-05-18T00:37:05.788Z,83.83
2018-05-18T00:39:33.337Z,53.80
2018-05-18T00:42:00.850Z,49.13
2018-05-18T00:44:28.788Z,52.03
2018-05-18T00:46:56.289Z,56.97
2018-05-18T00:49:23.961Z,56.40
2018-05-18T00:51:51.468Z,54.33
2018-05-18T00:54:18.964Z,44.57
2018-05-18T00:56:46.513Z,55.30
2018-05-18T00:59:14.024Z,47.00
2018-05-18T01:01:41.552Z,46.13
2018-05-18T01:04:09.060Z,57.07
2018-05-18T01:06:36.964Z,50.80
2018-05-18T01:09:05.234Z,49.57
2018-05-18T01:11:32.763Z,48.90
2018-05-18T01:14:00.678Z,48.80
2018-05-18T01:16:28.218Z,52.57
2018-05-18T01:18:55.721Z,53.43
2018-05-18T01:21:23.259Z,48.13
2018-05-18T01:23:50.773Z,61.77
2018-05-18T01:26:18.305Z,45.37
2018-05-18T01:28:46.220Z,49.60
2018-05-18T01:31:13.757Z,47.23
2018-05-18T01:33:41.390Z,49.65
2018-05-18T01:36:08.929Z,43.77
2018-05-18T01:38:36.936Z,43.07
2018-05-18T01:41:04.488Z,46.77
2018-05-18T01:43:32.049Z,47.70
2018-05-18T01:45:59.713Z,57.40
2018-05-18T01:48:27.366Z,42.80
2018-05-18T01:50:54.905Z,46.87
2018-05-18T01:53:22.410Z,46.53
2018-05-18T01:55:49.948Z,43.23
2018-05-18T01:58:17.456Z,42.57
2018-05-18T02:00:45.397Z,44.70
2018-05-18T02:03:12.910Z,45.47
2018-05-18T02:05:40.434Z,59.27
2018-05-18T02:08:07.961Z,46.70
2018-05-18T02:10:35.513Z,40.93
2018-05-18T02:13:03.026Z,46.83
2018-05-18T02:15:30.570Z,38.37
2018-05-18T02:17:58.089Z,49.33
2018-05-18T02:20:25.634Z,44.67
2018-05-18T02:22:53.150Z,45.53
2018-05-18T02:25:20.798Z,40.47
2018-05-18T02:27:48.317Z,45.77
2018-05-18T02:30:15.841Z,53.20
2018-05-18T02:32:43.387Z,48.23
2018-05-18T02:35:11.050Z,40.70
2018-05-18T02:37:38.607Z,54.43
2018-05-18T02:40:06.162Z,41.77
2018-05-18T02:42:33.804Z,37.17
2018-05-18T02:45:01.330Z,40.23
2018-05-18T02:47:29.270Z,42.57
2018-05-18T02:49:56.777Z,42.17
2018-05-18T02:52:24.491Z,39.80
2018-05-18T02:54:52.081Z,45.27
2018-05-18T02:57:19.639Z,43.17
2018-05-18T02:59:47.157Z,43.80
2018-05-18T03:02:14.714Z,44.00
2018-05-18T03:04:42.221Z,49.33
2018-05-18T03:07:09.764Z,42.50
2018-05-18T03:09:37.439Z,46.73
2018-05-18T03:12:04.969Z,49.80
2018-05-18T03:14:32.869Z,50.33
2018-05-18T03:17:00.622Z,43.47
2018-05-18T03:19:28.145Z,50.27
2018-05-18T03:21:56.086Z,46.40
2018-05-18T03:24:23.609Z,45.73
2018-05-18T03:26:51.169Z,44.70
2018-05-18T03:29:18.694Z,46.90
2018-05-18T03:31:46.220Z,49.03
2018-05-18T03:34:13.728Z,42.63
2018-05-18T03:36:41.312Z,44.23
2018-05-18T03:39:08.808Z,53.37
2018-05-18T03:41:36.353Z,64.73
2018-05-18T03:44:04.051Z,44.90
2018-05-18T03:46:31.609Z,56.83
2018-05-18T03:48:59.108Z,44.77
2018-05-18T03:51:26.670Z,46.33
2018-05-18T03:53:54.186Z,44.77
2018-05-18T03:56:21.743Z,41.17
2018-05-18T03:58:49.246Z,39.97
2018-05-18T04:01:29.107Z,43.17
2018-05-18T04:04:08.257Z,43.17
2018-05-18T04:06:47.689Z,39.97
2018-05-18T04:09:15.260Z,45.73
2018-05-18T04:11:42.812Z,37.20
2018-05-18T04:14:11.293Z,43.27
2018-05-18T04:16:38.812Z,43.20
2018-05-18T04:19:06.521Z,42.23
2018-05-18T04:21:34.048Z,41.70
2018-05-18T04:24:01.608Z,45.73
2018-05-18T04:26:29.119Z,44.37
2018-05-18T04:28:57.063Z,39.72
2018-05-18T04:31:24.576Z,47.00
2018-05-18T04:33:52.122Z,40.97
2018-05-18T04:36:19.677Z,39.63
2018-05-18T04:38:47.230Z,40.10
2018-05-18T04:41:14.741Z,39.53
2018-05-18T04:43:42.288Z,38.97
2018-05-18T04:46:10.078Z,39.27
2018-05-18T04:48:37.621Z,41.27
2018-05-18T04:51:05.163Z,40.47
2018-05-18T04:53:32.698Z,52.08
2018-05-18T04:56:00.369Z,38.63
2018-05-18T04:58:27.915Z,44.87
2018-05-18T05:00:55.444Z,43.60
2018-05-18T05:03:22.973Z,39.47
2018-05-18T05:05:50.902Z,39.50
2018-05-18T05:08:18.470Z,36.77
2018-05-18T05:10:45.984Z,36.83
2018-05-18T05:13:13.759Z,39.87
2018-05-18T05:15:41.276Z,34.53
2018-05-18T05:18:09.222Z,40.63
2018-05-18T05:20:36.745Z,37.53
2018-05-18T05:23:04.332Z,34.83
2018-05-18T05:25:31.843Z,38.77
2018-05-18T05:27:59.380Z,39.17
2018-05-18T05:30:27.015Z,39.67
2018-05-18T05:32:54.533Z,40.00
2018-05-18T05:35:22.045Z,37.63
2018-05-18T05:37:49.604Z,34.28
2018-05-18T05:40:17.127Z,33.80
2018-05-18T05:42:45.046Z,33.95
2018-05-18T05:45:12.706Z,30.30
2018-05-18T05:47:40.215Z,36.33
2018-05-18T05:50:07.814Z,31.05
2018-05-18T05:52:35.342Z,36.53
2018-05-18T05:55:03.335Z,32.03
2018-05-18T05:57:30.841Z,30.07
2018-05-18T05:59:58.374Z,33.88
2018-05-18T06:02:25.907Z,33.40
2018-05-18T06:04:53.448Z,32.63
2018-05-18T06:07:20.960Z,34.88
2018-05-18T06:09:48.509Z,28.08
2018-05-18T06:12:16.197Z,36.58
2018-05-18T06:14:43.705Z,33.10
2018-05-18T06:17:11.285Z,31.48
2018-05-18T06:19:38.843Z,41.17
2018-05-18T06:22:06.365Z,29.20
2018-05-18T06:24:33.892Z,25.33
2018-05-18T06:27:01.420Z,32.05
2018-05-18T06:29:28.977Z,36.05
2018-05-18T06:31:56.509Z,31.67
2018-05-18T06:34:24.242Z,29.83
2018-05-18T06:36:51.761Z,29.27
2018-05-18T06:39:19.697Z,32.92
2018-05-18T06:41:47.221Z,27.77
2018-05-18T06:44:14.781Z,37.50
2018-05-18T06:46:42.346Z,31.35
2018-05-18T06:49:09.857Z,26.73
2018-05-18T06:51:37.767Z,25.20
2018-05-18T06:54:05.334Z,34.55
2018-05-18T06:56:32.847Z,29.15
2018-05-18T06:59:00.457Z,32.90
2018-05-18T07:01:27.977Z,26.90
2018-05-18T07:03:55.531Z,36.28
2018-05-18T07:06:23.065Z,25.95
2018-05-18T07:08:50.617Z,28.58
2018-05-18T07:11:18.150Z,25.02
2018-05-18T07:13:45.669Z,33.05
2018-05-18T07:16:13.221Z,27.23
2018-05-18T07:18:40.742Z,30.48
2018-05-18T07:21:08.282Z,24.77
2018-05-18T07:23:35.806Z,28.30
2018-05-18T07:26:03.332Z,29.42
2018-05-18T07:28:30.893Z,23.12
2018-05-18T07:30:58.446Z,27.67
2018-05-18T07:33:25.977Z,25.42
2018-05-18T07:35:53.537Z,26.10
2018-05-18T07:38:21.442Z,22.83
2018-05-18T07:40:48.977Z,31.17
2018-05-18T07:43:16.481Z,29.12
2018-05-18T07:45:44.038Z,25.25
2018-05-18T07:48:11.554Z,23.85
2018-05-18T07:50:39.114Z,24.98
2018-05-18T07:53:06.657Z,24.25
2018-05-18T07:55:34.200Z,22.50
2018-05-18T07:58:01.981Z,22.95
2018-05-18T08:00:29.533Z,25.08
2018-05-18T08:02:57.040Z,21.58
2018-05-18T08:05:24.574Z,17.70
2018-05-18T08:07:52.145Z,17.60
2018-05-18T08:10:19.657Z,20.33
2018-05-18T08:12:47.176Z,20.73
2018-05-18T08:15:15.198Z,17.73
2018-05-18T08:17:42.763Z,16.27
2018-05-18T08:20:10.317Z,17.95
2018-05-18T08:22:37.903Z,21.48
2018-05-18T08:25:05.440Z,17.27
2018-05-18T08:27:32.943Z,19.42
2018-05-18T08:30:00.484Z,15.73
2018-05-18T08:32:27.988Z,21.87
2018-05-18T08:34:55.533Z,16.85
2018-05-18T08:37:23.058Z,21.87
2018-05-18T08:39:50.621Z,22.25
2018-05-18T08:42:18.129Z,20.45
2018-05-18T08:44:45.669Z,17.45
2018-05-18T08:47:13.170Z,17.52
2018-05-18T08:49:41.081Z,20.23
2018-05-18T08:52:08.616Z,17.73
2018-05-18T08:54:36.132Z,19.50
2018-05-18T08:57:03.743Z,18.85
2018-05-18T08:59:31.247Z,18.30
2018-05-18T09:01:59.188Z,15.50
2018-05-18T09:04:26.703Z,19.62
2018-05-18T09:06:54.370Z,13.90
2018-05-18T09:09:21.880Z,20.85
2018-05-18T09:11:49.422Z,19.33
2018-05-18T09:14:16.934Z,19.23
2018-05-18T09:16:44.478Z,18.25
2018-05-18T09:19:12.129Z,19.33
2018-05-18T09:21:39.677Z,18.48
2018-05-18T09:24:07.173Z,15.77
2018-05-18T09:26:34.723Z,23.33
2018-05-18T09:29:02.241Z,17.48
2018-05-18T09:31:29.924Z,18.52
2018-05-18T09:33:57.473Z,19.85
2018-05-18T09:36:25.407Z,14.75
2018-05-18T09:38:52.917Z,19.40
2018-05-18T09:41:20.467Z,13.60
2018-05-18T09:43:47.997Z,15.30
2018-05-18T09:46:15.547Z,15.95
2018-05-18T09:48:43.457Z,22.37
2018-05-18T09:51:11.199Z,20.62
2018-05-18T09:53:38.705Z,15.38
2018-05-18T09:56:06.316Z,13.27
2018-05-18T09:58:33.979Z,14.60
2018-05-18T10:01:01.527Z,17.15
2018-05-18T10:03:29.049Z,16.98
2018-05-18T10:05:56.753Z,11.75
2018-05-18T10:08:24.614Z,14.27
2018-05-18T10:10:52.138Z,11.60
2018-05-18T10:13:20.081Z,17.50
2018-05-18T10:15:47.609Z,13.52
2018-05-18T10:18:15.153Z,12.48
2018-05-18T10:20:42.699Z,14.45
2018-05-18T10:23:10.247Z,13.52
2018-05-18T10:25:37.797Z,13.20
2018-05-18T10:28:05.368Z,16.90
2018-05-18T10:30:32.893Z,16.48
2018-05-18T10:33:00.453Z,13.48
2018-05-18T10:35:28.359Z,18.35
2018-05-18T10:37:55.905Z,17.25
2018-05-18T10:40:23.404Z,12.70
2018-05-18T10:42:50.951Z,10.77
2018-05-18T10:45:18.493Z,11.07
2018-05-18T10:47:46.044Z,13.43
2018-05-18T10:50:13.555Z,11.18
2018-05-18T10:52:41.109Z,12.70
2018-05-18T10:55:09.105Z,12.82
2018-05-18T10:57:36.633Z,13.57
2018-05-18T11:00:04.151Z,13.55
2018-05-18T11:02:31.681Z,13.57
2018-05-18T11:04:59.328Z,12.60
2018-05-18T11:07:26.872Z,16.67
2018-05-18T11:09:54.384Z,18.12
2018-05-18T11:12:21.925Z,18.10
2018-05-18T11:14:49.546Z,14.98
2018-05-18T11:17:17.093Z,19.30
2018-05-18T11:19:44.626Z,13.57
2018-05-18T11:22:12.325Z,22.73
2018-05-18T11:24:39.848Z,16.25
2018-05-18T11:27:07.803Z,15.95
2018-05-18T11:29:35.341Z,12.60
2018-05-18T11:32:02.881Z,13.82
2018-05-18T11:34:30.384Z,11.90
2018-05-18T11:36:57.922Z,12.13
2018-05-18T11:39:25.529Z,15.25
2018-05-18T11:41:53.030Z,11.55
2018-05-18T11:44:20.594Z,13.52
2018-05-18T11:46:48.136Z,13.05
2018-05-18T11:49:15.675Z,12.80
2018-05-18T11:51:43.181Z,14.73
2018-05-18T11:54:10.727Z,16.65
2018-05-18T11:56:38.639Z,13.95
2018-05-18T11:59:06.172Z,16.52
2018-05-18T12:01:33.678Z,12.25
2018-05-18T12:04:01.221Z,13.55
2018-05-18T12:06:28.743Z,15.65
2018-05-18T12:08:56.285Z,16.90
2018-05-18T12:11:23.784Z,10.10
2018-05-18T12:13:51.508Z,12.25
2018-05-18T12:16:19.138Z,13.13
2018-05-18T12:18:46.836Z,14.05
2018-05-18T12:21:14.346Z,14.15
2018-05-18T12:23:41.962Z,10.73
2018-05-18T12:26:09.519Z,10.95
2018-05-18T12:28:37.038Z,8.80
2018-05-18T12:31:04.556Z,18.05
2018-05-18T12:33:32.113Z,15.10
2018-05-18T12:35:59.835Z,15.70
2018-05-18T12:38:27.543Z,13.70
2018-05-18T12:40:55.155Z,17.17
2018-05-18T12:43:22.720Z,18.15
2018-05-18T12:45:50.233Z,14.75
2018-05-18T12:48:17.913Z,14.87
2018-05-18T12:50:45.425Z,13.35
2018-05-18T12:53:12.961Z,15.60
2018-05-18T12:55:40.476Z,12.70
2018-05-18T12:58:08.010Z,15.07
2018-05-18T13:00:35.554Z,11.35
2018-05-18T13:03:03.083Z,9.00
2018-05-18T13:05:30.612Z,14.05
2018-05-18T13:07:58.137Z,15.23
2018-05-18T13:10:26.134Z,14.98
2018-05-18T13:12:53.636Z,9.45
2018-05-18T13:15:21.184Z,17.10
2018-05-18T13:17:48.703Z,13.18
2018-05-18T13:20:16.240Z,16.15
2018-05-18T13:22:43.758Z,15.38
2018-05-18T13:25:11.281Z,19.65
2018-05-18T13:27:38.917Z,14.73
2018-05-18T13:30:06.445Z,17.15
2018-05-18T13:32:34.448Z,13.18
2018-05-18T13:35:02.003Z,10.60
2018-05-18T13:37:29.513Z,29.45
2018-05-18T13:39:57.052Z,12.25
2018-05-18T13:42:24.557Z,11.52
2018-05-18T13:44:52.121Z,14.93
2018-05-18T13:47:19.991Z,11.65
2018-05-18T13:49:47.526Z,13.80
2018-05-18T13:52:15.033Z,13.20
2018-05-18T13:54:42.564Z,15.27
2018-05-18T13:57:10.131Z,17.30
2018-05-18T13:59:37.632Z,12.82
2018-05-18T14:02:05.171Z,18.40
2018-05-18T14:04:32.701Z,12.35
2018-05-18T14:07:00.216Z,11.90
2018-05-18T14:09:27.768Z,8.05
2018-05-18T14:11:55.311Z,7.05
2018-05-18T14:14:22.865Z,10.23
2018-05-18T14:16:50.800Z,11.80
2018-05-18T14:19:18.427Z,13.65
2018-05-18T14:21:46.497Z,11.88
2018-05-18T14:24:14.047Z,12.15
2018-05-18T14:26:41.557Z,14.95
2018-05-18T14:29:09.109Z,10.25
2018-05-18T14:31:36.629Z,9.45
2018-05-18T14:34:04.165Z,9.07
2018-05-18T14:36:31.680Z,13.65
2018-05-18T14:38:59.231Z,12.77
2018-05-18T14:41:26.733Z,15.00
2018-05-18T14:43:54.303Z,10.32
2018-05-18T14:46:21.818Z,15.18
2018-05-18T14:48:49.724Z,8.60
2018-05-18T14:51:17.285Z,12.93
2018-05-18T14:53:44.803Z,12.90
2018-05-18T14:56:12.749Z,14.95
2018-05-18T14:58:40.377Z,14.95
2018-05-18T15:01:08.252Z,11.20
2018-05-18T15:03:35.771Z,10.95
2018-05-18T15:06:03.308Z,13.70
2018-05-18T15:08:30.813Z,11.93
2018-05-18T15:10:58.408Z,11.23
2018-05-18T15:13:25.885Z,12.75
2018-05-18T15:15:53.443Z,12.32
2018-05-18T15:18:20.964Z,10.20
2018-05-18T15:20:48.905Z,12.77
2018-05-18T15:23:16.440Z,10.73
2018-05-18T15:25:44.014Z,8.98
2018-05-18T15:28:11.552Z,10.07
2018-05-18T15:30:39.106Z,10.85
2018-05-18T15:33:06.618Z,9.63
2018-05-18T15:35:34.177Z,10.13
2018-05-18T15:38:02.091Z,13.70
2018-05-18T15:40:29.834Z,18.00
2018-05-18T15:42:57.350Z,13.00
2018-05-18T15:45:25.282Z,15.90
2018-05-18T15:47:52.814Z,12.95
2018-05-18T15:50:20.366Z,14.90
2018-05-18T15:52:47.873Z,11.85
2018-05-18T15:55:15.426Z,11.18
2018-05-18T15:57:42.945Z,11.15
2018-05-18T16:00:10.490Z,10.38
2018-05-18T16:02:37.998Z,8.50
2018-05-18T16:05:05.547Z,11.55
2018-05-18T16:07:33.070Z,9.50
2018-05-18T16:10:00.714Z,10.98
2018-05-18T16:12:28.377Z,12.75
2018-05-18T16:14:56.131Z,11.38
2018-05-18T16:17:23.633Z,12.85
2018-05-18T16:19:51.185Z,8.48
2018-05-18T16:22:18.741Z,12.80
2018-05-18T16:24:46.385Z,7.40
2018-05-18T16:27:13.950Z,11.10
2018-05-18T16:29:41.473Z,5.22
2018-05-18T16:32:09.027Z,7.65
2018-05-18T16:34:36.524Z,4.78
2018-05-18T16:37:04.077Z,5.65
2018-05-18T16:39:31.602Z,6.50
2018-05-18T16:41:59.133Z,3.40
2018-05-18T16:44:26.662Z,8.65
2018-05-18T16:46:54.210Z,7.75
2018-05-18T16:49:21.820Z,8.02
2018-05-18T16:51:49.377Z,5.65
2018-05-18T16:54:16.897Z,5.07
2018-05-18T16:56:44.462Z,5.32
2018-05-18T16:59:12.363Z,8.95
2018-05-18T17:01:39.918Z,6.65
2018-05-18T17:04:07.445Z,9.30
2018-05-18T17:06:35.221Z,4.55
2018-05-18T17:09:02.697Z,6.82
2018-05-18T17:11:30.246Z,9.40
2018-05-18T17:13:57.959Z,6.25
2018-05-18T17:16:25.504Z,4.37
2018-05-18T17:18:53.009Z,3.58
2018-05-18T17:21:20.538Z,8.48
2018-05-18T17:23:48.050Z,5.05
2018-05-18T17:26:15.597Z,5.55
2018-05-18T17:28:43.105Z,4.00
2018-05-18T17:31:10.637Z,8.35
2018-05-18T17:33:38.245Z,3.95
2018-05-18T17:36:05.790Z,4.85
2018-05-18T17:38:33.305Z,8.82
2018-05-18T17:41:00.854Z,4.25
2018-05-18T17:43:28.366Z,6.43
2018-05-18T17:45:55.907Z,9.00
2018-05-18T17:48:23.416Z,4.70
2018-05-18T17:50:50.973Z,3.42
2018-05-18T17:53:18.497Z,6.37
2018-05-18T17:55:46.013Z,5.57
2018-05-18T17:58:14.021Z,6.78
2018-05-18T18:00:41.518Z,9.38
2018-05-18T18:03:09.079Z,4.95
2018-05-18T18:05:36.592Z,3.50
2018-05-18T18:08:04.131Z,4.97
2018-05-18T18:10:31.691Z,7.07
2018-05-18T18:12:59.248Z,4.37
2018-05-18T18:15:26.743Z,5.65
2018-05-18T18:17:54.297Z,4.37
2018-05-18T18:20:21.825Z,6.30
2018-05-18T18:22:49.373Z,7.87
2018-05-18T18:25:16.881Z,4.20
2018-05-18T18:27:44.829Z,5.37
2018-05-18T18:30:12.339Z,6.18
2018-05-18T18:32:40.002Z,5.28
2018-05-18T18:35:07.508Z,6.97
2018-05-18T18:37:35.054Z,6.15
2018-05-18T18:40:02.790Z,4.87
2018-05-18T18:42:30.343Z,6.78
2018-05-18T18:44:57.855Z,6.62
2018-05-18T18:47:25.415Z,7.53
2018-05-18T18:49:53.334Z,12.85
2018-05-18T18:52:20.891Z,7.18
2018-05-18T18:54:48.398Z,7.60
2018-05-18T18:57:16.003Z,5.15
2018-05-18T18:59:43.466Z,5.97
2018-05-18T19:02:11.008Z,5.00
2018-05-18T19:04:38.545Z,10.13
2018-05-18T19:07:06.101Z,6.93
2018-05-18T19:09:33.656Z,6.80
2018-05-18T19:12:01.209Z,6.37
2018-05-18T19:14:28.708Z,6.18
2018-05-18T19:16:56.263Z,5.65
2018-05-18T19:19:23.761Z,8.70
2018-05-18T19:21:51.278Z,9.60
2018-05-18T19:24:18.902Z,7.93
2018-05-18T19:26:46.347Z,7.78
2018-05-18T19:29:13.869Z,8.10
2018-05-18T19:31:41.382Z,8.27
2018-05-18T19:34:08.913Z,6.93
2018-05-18T19:36:36.477Z,9.15
2018-05-18T19:39:04.034Z,10.05
2018-05-18T19:41:31.549Z,7.40
2018-05-18T19:43:59.086Z,9.48
2018-05-18T19:46:26.605Z,7.03
2018-05-18T19:48:54.137Z,9.50
2018-05-18T19:51:21.665Z,6.22
2018-05-18T19:53:49.222Z,7.22
2018-05-18T19:56:16.752Z,6.82
2018-05-18T19:58:44.309Z,9.15
2018-05-18T20:01:11.828Z,8.32
2018-05-18T20:03:39.598Z,6.35
2018-05-18T20:06:07.155Z,7.20
2018-05-18T20:08:34.718Z,9.57
2018-05-18T20:11:02.237Z,8.38
2018-05-18T20:13:29.777Z,11.23
2018-05-18T20:15:57.782Z,9.05
2018-05-18T20:18:25.390Z,10.73
2018-05-18T20:20:52.927Z,8.88
2018-05-18T20:23:20.461Z,12.45
2018-05-18T20:25:47.977Z,10.97
2018-05-18T20:28:15.536Z,10.43
2018-05-18T20:30:43.527Z,10.70
2018-05-18T20:33:11.058Z,7.12
2018-05-18T20:35:38.961Z,8.50
2018-05-18T20:38:06.535Z,11.10
2018-05-18T20:40:34.050Z,8.13
2018-05-18T20:43:01.577Z,6.47
2018-05-18T20:45:29.087Z,6.80
2018-05-18T20:47:56.628Z,8.85
2018-05-18T20:50:24.150Z,6.82
2018-05-18T20:52:52.047Z,8.07
2018-05-18T20:55:19.608Z,5.57
2018-05-18T20:57:47.113Z,9.32
2018-05-18T21:00:14.725Z,6.18
2018-05-18T21:02:42.249Z,4.68
2018-05-18T21:05:09.809Z,10.35
2018-05-18T21:07:37.331Z,4.93
2018-05-18T21:10:04.871Z,8.43
2018-05-18T21:12:32.396Z,4.37
2018-05-18T21:14:59.965Z,6.62
2018-05-18T21:17:27.465Z,7.47
2018-05-18T21:19:55.421Z,6.03
2018-05-18T21:22:22.941Z,7.72
2018-05-18T21:24:50.602Z,5.93
2018-05-18T21:27:18.115Z,6.60
2018-05-18T21:29:46.055Z,4.60
2018-05-18T21:32:13.581Z,7.03
2018-05-18T21:34:41.135Z,6.37
2018-05-18T21:37:08.624Z,5.40
2018-05-18T21:39:36.165Z,5.78
2018-05-18T21:42:03.682Z,6.68
2018-05-18T21:44:31.215Z,4.93
2018-05-18T21:46:58.910Z,5.40
2018-05-18T21:49:26.464Z,5.20
2018-05-18T21:51:54.122Z,7.30
2018-05-18T21:54:21.758Z,5.57
2018-05-18T21:56:49.209Z,6.77
2018-05-18T21:59:16.768Z,6.50
2018-05-18T22:01:44.268Z,4.80
2018-05-18T22:04:11.820Z,4.93
2018-05-18T22:06:39.421Z,5.60
2018-05-18T22:09:06.905Z,5.50
2018-05-18T22:11:34.466Z,5.07
2018-05-18T22:14:02.022Z,7.57
2018-05-18T22:16:29.577Z,7.40
2018-05-18T22:18:57.121Z,9.27
2018-05-18T22:21:24.631Z,9.83
2018-05-18T22:23:52.149Z,7.20
2018-05-18T22:26:19.803Z,7.07
2018-05-18T22:28:47.316Z,6.10
2018-05-18T22:31:15.344Z,3.50
2018-05-18T22:33:42.849Z,4.57
2018-05-18T22:36:10.849Z,4.43
2018-05-18T22:38:38.380Z,5.63
2018-05-18T22:41:05.924Z,10.47
2018-05-18T22:43:33.427Z,5.90
2018-05-18T22:46:00.985Z,4.83
2018-05-18T22:48:28.500Z,6.33
2018-05-18T22:50:56.023Z,7.47
2018-05-18T22:53:23.537Z,5.87
2018-05-18T22:55:51.095Z,8.07
2018-05-18T22:58:18.777Z,4.40
2018-05-18T23:00:46.301Z,6.07
2018-05-18T23:03:13.817Z,4.53
2018-05-18T23:05:41.361Z,4.80
2018-05-18T23:08:08.874Z,8.53
2018-05-18T23:10:36.400Z,6.33
2018-05-18T23:13:03.905Z,6.77
2018-05-18T23:15:31.448Z,5.83
2018-05-18T23:17:58.949Z,8.53
2018-05-18T23:20:26.501Z,7.80
2018-05-18T23:22:53.996Z,5.60
2018-05-18T23:25:21.529Z,5.73
2018-05-18T23:27:49.043Z,4.50
2018-05-18T23:30:16.570Z,5.10
2018-05-18T23:32:44.068Z,7.63
2018-05-18T23:35:11.593Z,5.77
2018-05-18T23:37:39.219Z,7.57
2018-05-18T23:40:06.749Z,4.20
2018-05-18T23:42:34.348Z,4.47
2018-05-18T23:45:01.921Z,5.13
2018-05-18T23:47:29.525Z,4.80
2018-05-18T23:49:57.058Z,8.83
2018-05-18T23:52:24.557Z,4.73
2018-05-18T23:54:52.069Z,5.57
2018-05-18T23:57:19.695Z,10.53
2018-05-18T23:59:47.560Z,6.13
